»·PEaware :: SWA5399 KSAN-KPHX

SWA5399 :: KSAN-KPHX

FLIGHT INFORMATION

Flight Status: Arrived
Operator:
Southwest Airlines
More flights by this operator :: More flights under this callsign
Pilot: Justin D. (15322)
Aircraft: BOEING 737-800
(B738)
More flights by this aircraft type
Origin: KSAN San Diego Intl-Lindbergh
United States
Destination: KPHX Phoenix Sky Harbor Intl
United States
More flights between these airports :: More routes between these airports
Route: + ZZOOO1 IPL J18 BZA HOGGZ HYDRR1
File this flight plan on PilotEdge
Remarks:
Altitude:
(Current/Filed)
27,000ft
Speed:
(Current/Filed)
450kts
Departed: 29-Dec-17 09:51 AM
Arrived: 29-Dec-17 10:41 AM
Distance/Time
Traveled:
264nm/0:50
Distance/Time
To Go:
Arrived

Flight Plot

Page will automatically refresh every two minutes.

Flight plan parsing failed; only flown route is shown


Map Options




Map Legend


Flown Route
Filed Route
Departure Airport
Arrival Airport
Navaid (VOR, NDB)
Fix

Horizontal Profiles

Position Reports

Time Latitude Longitude Heading Altitude Ground
Speed
29-Dec-17 09:43 32.732308 -117.195909 306 22ft 0kts
29-Dec-17 09:44 32.732309 -117.195910 306 22ft 0kts
29-Dec-17 09:45 32.732310 -117.195911 306 23ft 0kts
29-Dec-17 09:46 32.732310 -117.195913 306 23ft 0kts
29-Dec-17 09:47 32.732311 -117.195914 306 23ft 0kts
29-Dec-17 09:48 32.732312 -117.195915 306 23ft 0kts
29-Dec-17 09:49 32.732311 -117.195909 314 23ft 0kts
29-Dec-17 09:50 32.731960 -117.195638 42 23ft 0kts
29-Dec-17 09:51 32.732011 -117.195591 37 23ft 5kts
29-Dec-17 09:52 32.733208 -117.192430 104 23ft 6kts
29-Dec-17 09:53 32.732129 -117.187986 105 23ft 14kts
29-Dec-17 09:54 32.730600 -117.181685 106 23ft 16kts
29-Dec-17 09:55 32.729514 -117.177205 101 23ft 8kts
29-Dec-17 09:56 32.729935 -117.176398 17 23ft 14kts
29-Dec-17 09:57 32.735743 -117.198544 285 406ft 174kts
29-Dec-17 09:58 32.750250 -117.258514 286 3974ft 212kts
29-Dec-17 09:59 32.724655 -117.321897 190 6524ft 278kts
29-Dec-17 10:00 32.669149 -117.266356 100 10055ft 290kts
29-Dec-17 10:01 32.672630 -117.163580 86 12267ft 348kts
29-Dec-17 10:02 32.678676 -117.043744 85 14935ft 372kts
29-Dec-17 10:03 32.684891 -116.918337 85 17703ft 387kts
29-Dec-17 10:04 32.691449 -116.788556 85 20180ft 402kts
29-Dec-17 10:05 32.698310 -116.653387 85 22427ft 416kts
29-Dec-17 10:06 32.705067 -116.514277 85 24383ft 429kts
29-Dec-17 10:07 32.711790 -116.371512 85 26214ft 439kts
29-Dec-17 10:08 32.718481 -116.225471 85 27250ft 443kts
29-Dec-17 10:09 32.724950 -116.080677 85 27259ft 439kts
29-Dec-17 10:10 32.731233 -115.936221 85 27264ft 440kts
29-Dec-17 10:11 32.737622 -115.790697 85 27267ft 440kts
29-Dec-17 10:12 32.743495 -115.645557 85 27266ft 441kts
29-Dec-17 10:13 32.749167 -115.499756 86 27244ft 441kts
29-Dec-17 10:14 32.752746 -115.353488 86 27246ft 454kts
29-Dec-17 10:15 32.756341 -115.199114 86 27249ft 477kts
29-Dec-17 10:16 32.759640 -115.041274 87 27258ft 476kts
29-Dec-17 10:17 32.763046 -114.884038 87 27260ft 477kts
29-Dec-17 10:18 32.765955 -114.726744 87 27260ft 477kts
29-Dec-17 10:19 32.768593 -114.568855 87 27258ft 477kts
29-Dec-17 10:20 32.770861 -114.411555 87 27260ft 477kts
29-Dec-17 10:21 32.772927 -114.253705 87 27260ft 477kts
29-Dec-17 10:22 32.774556 -114.099347 87 26731ft 442kts
29-Dec-17 10:23 32.786577 -113.959607 79 25729ft 421kts
29-Dec-17 10:24 32.802095 -113.821967 80 25260ft 419kts
29-Dec-17 10:25 32.825320 -113.688092 60 25243ft 406kts
29-Dec-17 10:26 32.893673 -113.585122 46 23603ft 389kts
29-Dec-17 10:27 32.964578 -113.489384 46 22086ft 380kts
29-Dec-17 10:28 33.033515 -113.396071 46 20608ft 370kts
29-Dec-17 10:29 33.100870 -113.305281 46 19162ft 361kts
29-Dec-17 10:30 33.166567 -113.216301 46 17748ft 353kts
29-Dec-17 10:31 33.220286 -113.143254 47 16336ft 347kts
29-Dec-17 10:32 33.275136 -113.032581 81 14689ft 335kts
29-Dec-17 10:33 33.277889 -112.941302 87 13627ft 325kts
29-Dec-17 10:34 33.283566 -112.819118 74 12236ft 305kts
29-Dec-17 10:35 33.314724 -112.730285 64 11256ft 285kts
29-Dec-17 10:36 33.341212 -112.660225 65 10111ft 282kts
29-Dec-17 10:37 33.378246 -112.560836 65 8784ft 280kts
29-Dec-17 10:38 33.404051 -112.491268 65 7873ft 262kts
29-Dec-17 10:39 33.428234 -112.414204 82 6826ft 238kts
29-Dec-17 10:40 33.428661 -112.332035 89 5978ft 172kts
29-Dec-17 10:41 33.428933 -112.285289 88 5005ft 161kts
29-Dec-17 10:42 33.428973 -112.233292 88 4468ft 158kts
29-Dec-17 10:43 33.428948 -112.181660 88 3631ft 151kts
29-Dec-17 10:44 33.428919 -112.131420 88 2829ft 150kts
29-Dec-17 10:45 33.428892 -112.082003 89 2044ft 148kts
29-Dec-17 10:46 33.428865 -112.032868 90 1262ft 147kts
29-Dec-17 10:47 33.429352 -112.010855 48 1143ft 14kts
29-Dec-17 10:48 33.429979 -112.006894 83 1143ft 13kts
29-Dec-17 10:49 33.432083 -112.005351 81 1143ft 15kts
29-Dec-17 10:50 33.432874 -112.002026 92 1143ft 14kts
29-Dec-17 10:51 33.432973 -111.997247 53 1143ft 6kts
29-Dec-17 10:52 33.433377 -111.996894 33 1143ft 0kts
29-Dec-17 10:53 33.433377 -111.996894 33 1143ft 0kts
29-Dec-17 10:54 33.433377 -111.996894 33 1143ft 0kts
29-Dec-17 10:55 33.433377 -111.996894 33 1143ft 0kts
29-Dec-17 10:56 33.433377 -111.996894 33 1143ft 0kts
29-Dec-17 10:57 33.433377 -111.996894 33 1143ft 0kts

Navigation Log

Ident Type
Flight plan parsing failed, navigation log unavailable